createdAt,value
2022-08-19T00:00:11.406Z,0
2022-08-19T00:10:11.930Z,0
2022-08-19T00:20:12.525Z,0
2022-08-19T00:30:13.518Z,0
2022-08-19T01:20:15.978Z,0
2022-08-19T01:30:23.456Z,0
2022-08-19T01:50:17.960Z,0
2022-08-19T02:00:18.911Z,0
2022-08-19T02:10:19.689Z,0
2022-08-19T02:20:20.483Z,0
2022-08-19T02:30:20.800Z,0
2022-08-19T02:40:21.793Z,0
2022-08-19T02:50:21.868Z,0
2022-08-19T03:00:22.558Z,0
2022-08-19T03:20:23.723Z,0
2022-08-19T03:30:24.014Z,0
2022-08-19T03:40:24.672Z,0
2022-08-19T03:50:25.588Z,0
2022-08-19T04:00:25.774Z,0
2022-08-19T04:10:26.818Z,0
2022-08-19T04:20:27.643Z,0
2022-08-19T05:00:29.541Z,0
2022-08-19T05:30:46.321Z,0
2022-08-19T05:40:32.247Z,0
2022-08-19T06:00:33.036Z,0
2022-08-19T06:10:33.539Z,0
2022-08-19T06:20:52.522Z,0
2022-08-19T06:30:35.151Z,0
2022-08-19T06:40:35.862Z,0
2022-08-19T06:50:36.875Z,0
2022-08-19T07:00:37.117Z,0
2022-08-19T07:20:38.538Z,0
2022-08-19T07:30:39.432Z,0
2022-08-19T08:30:45.215Z,0
2022-08-19T08:40:44.250Z,0
2022-08-19T08:50:44.962Z,0
2022-08-19T09:00:45.843Z,0
2022-08-19T09:30:46.898Z,0
2022-08-19T09:40:47.168Z,0
2022-08-19T10:40:50.258Z,0
2022-08-19T10:50:50.347Z,11
2022-08-19T11:00:50.385Z,16
2022-08-19T11:10:50.950Z,46
2022-08-19T11:20:51.756Z,58
2022-08-19T11:30:52.032Z,63
2022-08-19T11:40:52.210Z,72
2022-08-19T11:50:52.505Z,73
2022-08-19T12:00:53.271Z,79
2022-08-19T12:11:00.955Z,81
2022-08-19T12:20:54.426Z,83
2022-08-19T12:31:02.218Z,85
2022-08-19T13:00:56.650Z,87
2022-08-19T13:10:57.085Z,87
2022-08-19T14:10:59.275Z,78
2022-08-19T14:20:59.843Z,76
2022-08-19T14:31:00.307Z,77
2022-08-19T15:11:02.571Z,77
2022-08-19T15:31:03.904Z,76
2022-08-19T15:41:04.751Z,77
2022-08-19T16:01:05.379Z,82
2022-08-19T16:41:07.977Z,82
2022-08-19T17:01:09.688Z,80
2022-08-19T17:51:13.433Z,85
2022-08-19T18:01:13.812Z,85
2022-08-19T18:31:14.946Z,87
2022-08-19T19:01:16.437Z,95
2022-08-19T19:11:24.040Z,93
2022-08-19T19:21:24.933Z,75
2022-08-19T19:31:18.457Z,11
2022-08-19T19:41:18.874Z,0
2022-08-19T19:51:26.867Z,0
2022-08-19T20:01:27.447Z,0
2022-08-19T20:11:27.904Z,0
2022-08-19T20:21:28.192Z,0
2022-08-19T20:31:21.842Z,0
2022-08-19T20:41:22.364Z,0
2022-08-19T20:51:22.932Z,0
2022-08-19T21:01:23.684Z,0
2022-08-19T21:41:24.794Z,0
2022-08-19T21:51:25.011Z,0
2022-08-19T22:11:26.474Z,0
2022-08-19T22:21:35.596Z,0
2022-08-19T23:41:32.390Z,0
2022-08-19T23:51:32.548Z,0
